sensor_id;sensor_type;location;lat;lon;timestamp;P1;durP1;ratioP1;P2;durP2;ratioP2
13331;SDS011;6735;51.456;12.626;2023-03-01T00:01:17;20.60;;;14.70;;
13331;SDS011;6735;51.456;12.626;2023-03-01T00:03:47;21.27;;;16.00;;
13331;SDS011;6735;51.456;12.626;2023-03-01T00:06:12;21.87;;;16.47;;
13331;SDS011;6735;51.456;12.626;2023-03-01T00:08:38;18.63;;;15.20;;
13331;SDS011;6735;51.456;12.626;2023-03-01T00:11:05;22.27;;;16.00;;
13331;SDS011;6735;51.456;12.626;2023-03-01T00:13:32;20.67;;;16.13;;
13331;SDS011;6735;51.456;12.626;2023-03-01T00:16:01;23.53;;;18.77;;
13331;SDS011;6735;51.456;12.626;2023-03-01T00:18:29;23.60;;;18.57;;
13331;SDS011;6735;51.456;12.626;2023-03-01T00:20:55;24.10;;;18.87;;
13331;SDS011;6735;51.456;12.626;2023-03-01T00:23:21;25.93;;;17.77;;
13331;SDS011;6735;51.456;12.626;2023-03-01T00:25:48;22.10;;;17.80;;
13331;SDS011;6735;51.456;12.626;2023-03-01T00:28:14;22.63;;;17.73;;
13331;SDS011;6735;51.456;12.626;2023-03-01T00:30:40;20.33;;;16.47;;
13331;SDS011;6735;51.456;12.626;2023-03-01T00:33:05;22.90;;;17.37;;
13331;SDS011;6735;51.456;12.626;2023-03-01T00:35:31;21.20;;;17.73;;
13331;SDS011;6735;51.456;12.626;2023-03-01T00:37:58;21.67;;;16.50;;
13331;SDS011;6735;51.456;12.626;2023-03-01T00:40:24;24.50;;;17.90;;
13331;SDS011;6735;51.456;12.626;2023-03-01T00:42:50;22.83;;;17.23;;
13331;SDS011;6735;51.456;12.626;2023-03-01T00:45:16;18.87;;;16.53;;
13331;SDS011;6735;51.456;12.626;2023-03-01T00:47:42;20.40;;;15.77;;
13331;SDS011;6735;51.456;12.626;2023-03-01T00:50:09;20.03;;;16.20;;
13331;SDS011;6735;51.456;12.626;2023-03-01T00:52:35;19.23;;;15.33;;
13331;SDS011;6735;51.456;12.626;2023-03-01T00:55:01;20.23;;;15.67;;
13331;SDS011;6735;51.456;12.626;2023-03-01T00:57:27;21.47;;;16.17;;
13331;SDS011;6735;51.456;12.626;2023-03-01T00:59:52;19.63;;;16.03;;
13331;SDS011;6735;51.456;12.626;2023-03-01T01:02:18;19.90;;;15.60;;
13331;SDS011;6735;51.456;12.626;2023-03-01T01:04:44;20.97;;;16.63;;
13331;SDS011;6735;51.456;12.626;2023-03-01T01:07:10;20.30;;;16.17;;
13331;SDS011;6735;51.456;12.626;2023-03-01T01:09:35;20.57;;;15.43;;
13331;SDS011;6735;51.456;12.626;2023-03-01T01:12:01;19.03;;;15.60;;
13331;SDS011;6735;51.456;12.626;2023-03-01T01:14:27;20.37;;;16.33;;
13331;SDS011;6735;51.456;12.626;2023-03-01T01:16:53;23.60;;;15.63;;
13331;SDS011;6735;51.456;12.626;2023-03-01T01:19:19;18.30;;;14.53;;
13331;SDS011;6735;51.456;12.626;2023-03-01T01:21:46;18.60;;;14.67;;
13331;SDS011;6735;51.456;12.626;2023-03-01T01:24:12;18.57;;;14.03;;
13331;SDS011;6735;51.456;12.626;2023-03-01T01:26:38;15.67;;;13.63;;
13331;SDS011;6735;51.456;12.626;2023-03-01T01:29:04;16.40;;;13.37;;
13331;SDS011;6735;51.456;12.626;2023-03-01T01:31:30;16.50;;;13.10;;
13331;SDS011;6735;51.456;12.626;2023-03-01T01:33:57;16.73;;;13.30;;
13331;SDS011;6735;51.456;12.626;2023-03-01T01:36:24;17.13;;;13.90;;
13331;SDS011;6735;51.456;12.626;2023-03-01T01:38:49;16.47;;;13.47;;
13331;SDS011;6735;51.456;12.626;2023-03-01T01:41:15;19.50;;;14.67;;
13331;SDS011;6735;51.456;12.626;2023-03-01T01:43:43;22.40;;;14.43;;
13331;SDS011;6735;51.456;12.626;2023-03-01T01:46:30;17.73;;;14.30;;
13331;SDS011;6735;51.456;12.626;2023-03-01T01:49:00;19.03;;;14.73;;
13331;SDS011;6735;51.456;12.626;2023-03-01T01:51:29;16.67;;;13.33;;
13331;SDS011;6735;51.456;12.626;2023-03-01T01:54:03;16.97;;;13.93;;
13331;SDS011;6735;51.456;12.626;2023-03-01T01:56:35;18.00;;;13.90;;
13331;SDS011;6735;51.456;12.626;2023-03-01T01:59:03;19.03;;;13.70;;
13331;SDS011;6735;51.456;12.626;2023-03-01T02:01:29;19.27;;;14.33;;
13331;SDS011;6735;51.456;12.626;2023-03-01T02:03:54;16.60;;;13.47;;
13331;SDS011;6735;51.456;12.626;2023-03-01T02:06:28;17.27;;;13.77;;
13331;SDS011;6735;51.456;12.626;2023-03-01T02:08:59;16.63;;;13.77;;
13331;SDS011;6735;51.456;12.626;2023-03-01T02:11:29;18.40;;;13.73;;
13331;SDS011;6735;51.456;12.626;2023-03-01T02:13:56;19.17;;;14.00;;
13331;SDS011;6735;51.456;12.626;2023-03-01T02:16:22;17.73;;;13.90;;
13331;SDS011;6735;51.456;12.626;2023-03-01T02:18:47;16.97;;;13.97;;
13331;SDS011;6735;51.456;12.626;2023-03-01T02:21:23;18.07;;;13.37;;
13331;SDS011;6735;51.456;12.626;2023-03-01T02:24:05;16.93;;;13.57;;
13331;SDS011;6735;51.456;12.626;2023-03-01T02:29:07;16.10;;;12.90;;
13331;SDS011;6735;51.456;12.626;2023-03-01T02:31:33;17.60;;;12.67;;
13331;SDS011;6735;51.456;12.626;2023-03-01T02:34:08;17.53;;;13.67;;
13331;SDS011;6735;51.456;12.626;2023-03-01T02:36:38;16.63;;;13.40;;
13331;SDS011;6735;51.456;12.626;2023-03-01T02:39:07;16.03;;;12.87;;
13331;SDS011;6735;51.456;12.626;2023-03-01T02:41:39;16.50;;;12.57;;
13331;SDS011;6735;51.456;12.626;2023-03-01T02:44:07;16.13;;;12.70;;
13331;SDS011;6735;51.456;12.626;2023-03-01T02:46:33;19.10;;;13.90;;
13331;SDS011;6735;51.456;12.626;2023-03-01T02:48:59;17.23;;;13.00;;
13331;SDS011;6735;51.456;12.626;2023-03-01T02:54:22;16.03;;;12.50;;
13331;SDS011;6735;51.456;12.626;2023-03-01T02:56:53;16.17;;;13.10;;
13331;SDS011;6735;51.456;12.626;2023-03-01T02:59:20;18.83;;;13.20;;
13331;SDS011;6735;51.456;12.626;2023-03-01T03:01:47;16.73;;;13.47;;
13331;SDS011;6735;51.456;12.626;2023-03-01T03:04:15;20.87;;;13.33;;
13331;SDS011;6735;51.456;12.626;2023-03-01T03:06:46;19.20;;;13.63;;
13331;SDS011;6735;51.456;12.626;2023-03-01T03:09:12;17.53;;;13.57;;
13331;SDS011;6735;51.456;12.626;2023-03-01T03:11:40;16.50;;;13.03;;
13331;SDS011;6735;51.456;12.626;2023-03-01T03:14:07;22.13;;;14.10;;
13331;SDS011;6735;51.456;12.626;2023-03-01T03:16:39;16.97;;;14.07;;
13331;SDS011;6735;51.456;12.626;2023-03-01T03:19:06;17.87;;;13.90;;
13331;SDS011;6735;51.456;12.626;2023-03-01T03:21:32;17.43;;;13.20;;
13331;SDS011;6735;51.456;12.626;2023-03-01T03:23:58;18.37;;;14.03;;
13331;SDS011;6735;51.456;12.626;2023-03-01T03:26:23;19.93;;;14.47;;
13331;SDS011;6735;51.456;12.626;2023-03-01T03:28:49;18.37;;;13.50;;
13331;SDS011;6735;51.456;12.626;2023-03-01T03:31:14;19.90;;;13.83;;
13331;SDS011;6735;51.456;12.626;2023-03-01T03:33:40;21.77;;;14.10;;
13331;SDS011;6735;51.456;12.626;2023-03-01T03:36:05;17.67;;;13.77;;
13331;SDS011;6735;51.456;12.626;2023-03-01T03:38:32;17.93;;;13.30;;
13331;SDS011;6735;51.456;12.626;2023-03-01T03:41:04;18.33;;;13.27;;
13331;SDS011;6735;51.456;12.626;2023-03-01T03:43:32;18.07;;;13.53;;
13331;SDS011;6735;51.456;12.626;2023-03-01T03:45:59;18.83;;;13.43;;
13331;SDS011;6735;51.456;12.626;2023-03-01T03:48:26;16.70;;;13.20;;
13331;SDS011;6735;51.456;12.626;2023-03-01T03:50:52;16.73;;;13.33;;
13331;SDS011;6735;51.456;12.626;2023-03-01T03:53:19;18.23;;;13.27;;
13331;SDS011;6735;51.456;12.626;2023-03-01T03:55:46;17.47;;;13.37;;
13331;SDS011;6735;51.456;12.626;2023-03-01T03:58:14;19.43;;;14.03;;
13331;SDS011;6735;51.456;12.626;2023-03-01T04:00:42;20.57;;;13.80;;
13331;SDS011;6735;51.456;12.626;2023-03-01T04:03:09;18.80;;;14.23;;
13331;SDS011;6735;51.456;12.626;2023-03-01T04:05:36;17.63;;;14.10;;
13331;SDS011;6735;51.456;12.626;2023-03-01T04:08:03;18.87;;;14.33;;
13331;SDS011;6735;51.456;12.626;2023-03-01T04:11:05;18.00;;;14.10;;
13331;SDS011;6735;51.456;12.626;2023-03-01T04:13:45;16.60;;;13.43;;
13331;SDS011;6735;51.456;12.626;2023-03-01T04:16:11;17.17;;;13.47;;
13331;SDS011;6735;51.456;12.626;2023-03-01T04:18:36;18.80;;;13.80;;
13331;SDS011;6735;51.456;12.626;2023-03-01T04:21:01;17.47;;;13.27;;
13331;SDS011;6735;51.456;12.626;2023-03-01T04:23:27;19.93;;;13.97;;
13331;SDS011;6735;51.456;12.626;2023-03-01T04:25:54;17.00;;;13.70;;
13331;SDS011;6735;51.456;12.626;2023-03-01T04:28:22;18.67;;;13.83;;
13331;SDS011;6735;51.456;12.626;2023-03-01T04:31:01;17.27;;;13.83;;
13331;SDS011;6735;51.456;12.626;2023-03-01T04:33:38;24.65;;;20.65;;
13331;SDS011;6735;51.456;12.626;2023-03-01T04:36:07;19.87;;;15.10;;
13331;SDS011;6735;51.456;12.626;2023-03-01T04:38:34;17.50;;;13.57;;
13331;SDS011;6735;51.456;12.626;2023-03-01T04:41:02;19.43;;;14.00;;
13331;SDS011;6735;51.456;12.626;2023-03-01T04:43:32;30.23;;;19.40;;
13331;SDS011;6735;51.456;12.626;2023-03-01T04:46:02;19.43;;;13.77;;
13331;SDS011;6735;51.456;12.626;2023-03-01T04:48:31;17.63;;;13.53;;
13331;SDS011;6735;51.456;12.626;2023-03-01T04:50:57;16.47;;;13.73;;
13331;SDS011;6735;51.456;12.626;2023-03-01T04:53:24;17.37;;;13.67;;
13331;SDS011;6735;51.456;12.626;2023-03-01T04:55:49;25.03;;;17.87;;
13331;SDS011;6735;51.456;12.626;2023-03-01T04:58:15;20.10;;;15.70;;
13331;SDS011;6735;51.456;12.626;2023-03-01T05:00:41;21.47;;;14.67;;
13331;SDS011;6735;51.456;12.626;2023-03-01T05:03:07;18.83;;;13.93;;
13331;SDS011;6735;51.456;12.626;2023-03-01T05:05:34;16.47;;;13.70;;
13331;SDS011;6735;51.456;12.626;2023-03-01T05:08:03;20.73;;;14.87;;
13331;SDS011;6735;51.456;12.626;2023-03-01T05:10:31;22.57;;;14.73;;
13331;SDS011;6735;51.456;12.626;2023-03-01T05:13:00;22.17;;;15.30;;
13331;SDS011;6735;51.456;12.626;2023-03-01T05:15:27;20.37;;;14.70;;
13331;SDS011;6735;51.456;12.626;2023-03-01T05:17:55;23.53;;;16.30;;
13331;SDS011;6735;51.456;12.626;2023-03-01T05:20:24;21.67;;;15.27;;
13331;SDS011;6735;51.456;12.626;2023-03-01T05:22:52;19.63;;;14.80;;
13331;SDS011;6735;51.456;12.626;2023-03-01T05:25:20;20.27;;;15.27;;
13331;SDS011;6735;51.456;12.626;2023-03-01T05:27:46;19.50;;;15.20;;
13331;SDS011;6735;51.456;12.626;2023-03-01T05:30:13;19.87;;;15.17;;
13331;SDS011;6735;51.456;12.626;2023-03-01T05:32:43;24.33;;;16.70;;
13331;SDS011;6735;51.456;12.626;2023-03-01T05:35:14;22.27;;;16.47;;
13331;SDS011;6735;51.456;12.626;2023-03-01T05:37:41;22.43;;;16.47;;
13331;SDS011;6735;51.456;12.626;2023-03-01T05:40:09;20.33;;;15.97;;
13331;SDS011;6735;51.456;12.626;2023-03-01T05:42:41;23.70;;;17.27;;
13331;SDS011;6735;51.456;12.626;2023-03-01T05:45:08;21.00;;;16.00;;
13331;SDS011;6735;51.456;12.626;2023-03-01T05:47:35;20.57;;;15.63;;
13331;SDS011;6735;51.456;12.626;2023-03-01T05:50:01;21.07;;;15.20;;
13331;SDS011;6735;51.456;12.626;2023-03-01T05:52:27;19.67;;;14.63;;
13331;SDS011;6735;51.456;12.626;2023-03-01T05:54:52;20.00;;;14.57;;
13331;SDS011;6735;51.456;12.626;2023-03-01T05:57:18;21.67;;;15.73;;
13331;SDS011;6735;51.456;12.626;2023-03-01T05:59:45;21.03;;;14.57;;
13331;SDS011;6735;51.456;12.626;2023-03-01T06:02:11;24.37;;;16.80;;
13331;SDS011;6735;51.456;12.626;2023-03-01T06:04:36;24.70;;;17.17;;
13331;SDS011;6735;51.456;12.626;2023-03-01T06:07:02;22.00;;;15.40;;
13331;SDS011;6735;51.456;12.626;2023-03-01T06:09:27;22.37;;;15.67;;
13331;SDS011;6735;51.456;12.626;2023-03-01T06:11:53;23.40;;;15.23;;
13331;SDS011;6735;51.456;12.626;2023-03-01T06:14:19;21.13;;;15.23;;
13331;SDS011;6735;51.456;12.626;2023-03-01T06:16:45;18.67;;;14.13;;
13331;SDS011;6735;51.456;12.626;2023-03-01T06:19:11;22.73;;;15.07;;
13331;SDS011;6735;51.456;12.626;2023-03-01T06:21:36;21.83;;;14.33;;
13331;SDS011;6735;51.456;12.626;2023-03-01T06:24:02;18.47;;;14.30;;
13331;SDS011;6735;51.456;12.626;2023-03-01T06:26:28;24.63;;;17.00;;
13331;SDS011;6735;51.456;12.626;2023-03-01T06:28:53;24.13;;;16.83;;
13331;SDS011;6735;51.456;12.626;2023-03-01T06:31:19;23.23;;;16.50;;
13331;SDS011;6735;51.456;12.626;2023-03-01T06:33:44;25.93;;;17.93;;
13331;SDS011;6735;51.456;12.626;2023-03-01T06:36:10;31.43;;;19.47;;
13331;SDS011;6735;51.456;12.626;2023-03-01T06:38:35;33.33;;;20.57;;
13331;SDS011;6735;51.456;12.626;2023-03-01T06:41:01;23.17;;;16.03;;
13331;SDS011;6735;51.456;12.626;2023-03-01T06:43:27;23.17;;;15.33;;
13331;SDS011;6735;51.456;12.626;2023-03-01T06:45:52;16.87;;;13.30;;
13331;SDS011;6735;51.456;12.626;2023-03-01T06:48:17;19.53;;;15.40;;
13331;SDS011;6735;51.456;12.626;2023-03-01T06:50:43;19.80;;;14.67;;
13331;SDS011;6735;51.456;12.626;2023-03-01T06:53:09;19.60;;;15.17;;
13331;SDS011;6735;51.456;12.626;2023-03-01T06:55:34;25.23;;;17.13;;
13331;SDS011;6735;51.456;12.626;2023-03-01T06:58:00;26.10;;;18.60;;
13331;SDS011;6735;51.456;12.626;2023-03-01T07:00:27;23.23;;;16.13;;
13331;SDS011;6735;51.456;12.626;2023-03-01T07:02:53;20.60;;;15.37;;
13331;SDS011;6735;51.456;12.626;2023-03-01T07:05:19;21.13;;;14.80;;
13331;SDS011;6735;51.456;12.626;2023-03-01T07:07:45;19.03;;;14.80;;
13331;SDS011;6735;51.456;12.626;2023-03-01T07:10:10;20.00;;;15.17;;
13331;SDS011;6735;51.456;12.626;2023-03-01T07:12:36;20.77;;;15.40;;
13331;SDS011;6735;51.456;12.626;2023-03-01T07:15:02;20.93;;;15.63;;
13331;SDS011;6735;51.456;12.626;2023-03-01T07:17:28;23.23;;;16.03;;
13331;SDS011;6735;51.456;12.626;2023-03-01T07:19:54;19.30;;;16.03;;
13331;SDS011;6735;51.456;12.626;2023-03-01T07:22:19;18.47;;;15.53;;
13331;SDS011;6735;51.456;12.626;2023-03-01T07:24:45;21.00;;;16.17;;
13331;SDS011;6735;51.456;12.626;2023-03-01T07:27:10;23.33;;;16.17;;
13331;SDS011;6735;51.456;12.626;2023-03-01T07:29:36;22.37;;;16.93;;
13331;SDS011;6735;51.456;12.626;2023-03-01T07:32:01;21.87;;;17.20;;
13331;SDS011;6735;51.456;12.626;2023-03-01T07:34:28;22.77;;;17.00;;
13331;SDS011;6735;51.456;12.626;2023-03-01T07:36:53;23.73;;;16.90;;
13331;SDS011;6735;51.456;12.626;2023-03-01T07:39:19;21.03;;;17.33;;
13331;SDS011;6735;51.456;12.626;2023-03-01T07:41:44;22.20;;;17.47;;
13331;SDS011;6735;51.456;12.626;2023-03-01T07:44:10;24.77;;;17.47;;
13331;SDS011;6735;51.456;12.626;2023-03-01T07:46:35;22.40;;;18.07;;
13331;SDS011;6735;51.456;12.626;2023-03-01T07:49:01;26.37;;;17.90;;
13331;SDS011;6735;51.456;12.626;2023-03-01T07:51:26;19.40;;;16.23;;
13331;SDS011;6735;51.456;12.626;2023-03-01T07:53:52;20.27;;;15.87;;
13331;SDS011;6735;51.456;12.626;2023-03-01T07:56:17;21.27;;;15.33;;
13331;SDS011;6735;51.456;12.626;2023-03-01T07:58:44;19.10;;;15.60;;
13331;SDS011;6735;51.456;12.626;2023-03-01T08:01:12;19.40;;;16.20;;
13331;SDS011;6735;51.456;12.626;2023-03-01T08:03:39;18.47;;;14.77;;
13331;SDS011;6735;51.456;12.626;2023-03-01T08:06:05;19.87;;;15.70;;
13331;SDS011;6735;51.456;12.626;2023-03-01T08:08:32;19.90;;;15.70;;
13331;SDS011;6735;51.456;12.626;2023-03-01T08:10:59;18.37;;;15.40;;
13331;SDS011;6735;51.456;12.626;2023-03-01T08:13:25;18.10;;;16.20;;
13331;SDS011;6735;51.456;12.626;2023-03-01T08:15:52;18.07;;;15.33;;
13331;SDS011;6735;51.456;12.626;2023-03-01T08:18:18;17.70;;;15.83;;
13331;SDS011;6735;51.456;12.626;2023-03-01T08:20:44;17.93;;;15.87;;
13331;SDS011;6735;51.456;12.626;2023-03-01T08:23:10;17.20;;;15.40;;
13331;SDS011;6735;51.456;12.626;2023-03-01T08:25:36;17.90;;;15.93;;
13331;SDS011;6735;51.456;12.626;2023-03-01T08:28:02;32.10;;;28.93;;
13331;SDS011;6735;51.456;12.626;2023-03-01T08:30:27;22.23;;;19.10;;
13331;SDS011;6735;51.456;12.626;2023-03-01T08:32:53;17.83;;;15.57;;
13331;SDS011;6735;51.456;12.626;2023-03-01T08:35:19;16.90;;;15.03;;
13331;SDS011;6735;51.456;12.626;2023-03-01T08:37:45;17.37;;;15.40;;
13331;SDS011;6735;51.456;12.626;2023-03-01T08:40:11;17.87;;;15.87;;
13331;SDS011;6735;51.456;12.626;2023-03-01T08:42:38;17.47;;;15.67;;
13331;SDS011;6735;51.456;12.626;2023-03-01T08:45:04;18.27;;;16.37;;
13331;SDS011;6735;51.456;12.626;2023-03-01T08:47:30;16.50;;;14.70;;
13331;SDS011;6735;51.456;12.626;2023-03-01T08:49:56;18.53;;;15.63;;
13331;SDS011;6735;51.456;12.626;2023-03-01T08:52:21;18.63;;;16.30;;
13331;SDS011;6735;51.456;12.626;2023-03-01T08:54:47;18.17;;;15.83;;
13331;SDS011;6735;51.456;12.626;2023-03-01T08:57:13;20.63;;;16.90;;
13331;SDS011;6735;51.456;12.626;2023-03-01T08:59:39;18.53;;;16.53;;
13331;SDS011;6735;51.456;12.626;2023-03-01T09:02:06;21.90;;;17.27;;
13331;SDS011;6735;51.456;12.626;2023-03-01T09:04:37;20.50;;;17.90;;
13331;SDS011;6735;51.456;12.626;2023-03-01T09:07:03;23.30;;;19.03;;
13331;SDS011;6735;51.456;12.626;2023-03-01T09:09:29;23.83;;;18.53;;
13331;SDS011;6735;51.456;12.626;2023-03-01T09:11:54;21.70;;;17.40;;
13331;SDS011;6735;51.456;12.626;2023-03-01T09:14:20;24.67;;;18.63;;
13331;SDS011;6735;51.456;12.626;2023-03-01T09:16:45;20.77;;;18.10;;
13331;SDS011;6735;51.456;12.626;2023-03-01T09:19:11;23.57;;;20.93;;
13331;SDS011;6735;51.456;12.626;2023-03-01T09:21:37;24.80;;;20.10;;
13331;SDS011;6735;51.456;12.626;2023-03-01T09:24:03;23.10;;;20.03;;
13331;SDS011;6735;51.456;12.626;2023-03-01T09:26:28;28.77;;;21.50;;
13331;SDS011;6735;51.456;12.626;2023-03-01T09:28:54;26.23;;;22.17;;
13331;SDS011;6735;51.456;12.626;2023-03-01T09:31:21;25.17;;;20.73;;
13331;SDS011;6735;51.456;12.626;2023-03-01T09:33:50;24.40;;;21.73;;
13331;SDS011;6735;51.456;12.626;2023-03-01T09:36:19;27.20;;;22.33;;
13331;SDS011;6735;51.456;12.626;2023-03-01T09:38:46;27.63;;;22.13;;
13331;SDS011;6735;51.456;12.626;2023-03-01T09:44:02;26.43;;;22.73;;
13331;SDS011;6735;51.456;12.626;2023-03-01T09:46:37;30.00;;;23.03;;
13331;SDS011;6735;51.456;12.626;2023-03-01T09:49:11;25.83;;;21.17;;
13331;SDS011;6735;51.456;12.626;2023-03-01T09:51:42;28.03;;;22.97;;
13331;SDS011;6735;51.456;12.626;2023-03-01T09:54:19;30.47;;;22.63;;
13331;SDS011;6735;51.456;12.626;2023-03-01T09:57:06;25.43;;;21.47;;
13331;SDS011;6735;51.456;12.626;2023-03-01T10:00:00;28.70;;;21.73;;
13331;SDS011;6735;51.456;12.626;2023-03-01T10:08:26;26.90;;;20.80;;
13331;SDS011;6735;51.456;12.626;2023-03-01T10:10:54;28.43;;;21.90;;
13331;SDS011;6735;51.456;12.626;2023-03-01T10:16:18;29.53;;;21.60;;
13331;SDS011;6735;51.456;12.626;2023-03-01T10:18:56;34.80;;;21.53;;
13331;SDS011;6735;51.456;12.626;2023-03-01T10:21:26;26.97;;;21.83;;
13331;SDS011;6735;51.456;12.626;2023-03-01T10:23:53;25.43;;;20.23;;
13331;SDS011;6735;51.456;12.626;2023-03-01T10:29:18;26.63;;;19.87;;
13331;SDS011;6735;51.456;12.626;2023-03-01T10:31:51;26.37;;;18.97;;
13331;SDS011;6735;51.456;12.626;2023-03-01T10:34:22;24.90;;;19.10;;
13331;SDS011;6735;51.456;12.626;2023-03-01T10:36:56;23.97;;;18.77;;
13331;SDS011;6735;51.456;12.626;2023-03-01T10:39:34;24.10;;;19.27;;
13331;SDS011;6735;51.456;12.626;2023-03-01T10:42:01;23.80;;;18.60;;
13331;SDS011;6735;51.456;12.626;2023-03-01T10:44:37;24.67;;;18.13;;
13331;SDS011;6735;51.456;12.626;2023-03-01T10:47:04;27.73;;;19.93;;
13331;SDS011;6735;51.456;12.626;2023-03-01T10:49:36;22.40;;;17.93;;
13331;SDS011;6735;51.456;12.626;2023-03-01T10:52:11;26.13;;;19.47;;
13331;SDS011;6735;51.456;12.626;2023-03-01T10:54:43;25.63;;;19.80;;
13331;SDS011;6735;51.456;12.626;2023-03-01T10:57:31;26.60;;;19.73;;
13331;SDS011;6735;51.456;12.626;2023-03-01T11:00:18;25.10;;;18.60;;
13331;SDS011;6735;51.456;12.626;2023-03-01T11:02:51;22.23;;;18.50;;
13331;SDS011;6735;51.456;12.626;2023-03-01T11:05:28;23.43;;;17.77;;
13331;SDS011;6735;51.456;12.626;2023-03-01T11:07:58;21.33;;;17.03;;
13331;SDS011;6735;51.456;12.626;2023-03-01T11:10:26;23.70;;;16.30;;
13331;SDS011;6735;51.456;12.626;2023-03-01T11:12:53;24.20;;;17.57;;
13331;SDS011;6735;51.456;12.626;2023-03-01T11:15:31;25.77;;;18.63;;
13331;SDS011;6735;51.456;12.626;2023-03-01T11:17:57;22.43;;;18.00;;
13331;SDS011;6735;51.456;12.626;2023-03-01T11:20:29;23.20;;;16.70;;
13331;SDS011;6735;51.456;12.626;2023-03-01T11:22:59;21.03;;;16.10;;
13331;SDS011;6735;51.456;12.626;2023-03-01T11:25:32;21.43;;;17.13;;
13331;SDS011;6735;51.456;12.626;2023-03-01T11:28:02;20.80;;;16.80;;
13331;SDS011;6735;51.456;12.626;2023-03-01T11:30:35;21.53;;;16.50;;
13331;SDS011;6735;51.456;12.626;2023-03-01T11:35:37;21.17;;;17.07;;
13331;SDS011;6735;51.456;12.626;2023-03-01T11:38:13;22.43;;;17.00;;
13331;SDS011;6735;51.456;12.626;2023-03-01T11:40:46;23.97;;;18.33;;
13331;SDS011;6735;51.456;12.626;2023-03-01T11:43:33;19.90;;;16.43;;
13331;SDS011;6735;51.456;12.626;2023-03-01T11:46:17;20.17;;;17.13;;
13331;SDS011;6735;51.456;12.626;2023-03-01T11:52:00;21.37;;;16.27;;
13331;SDS011;6735;51.456;12.626;2023-03-01T12:03:28;21.07;;;16.53;;
13331;SDS011;6735;51.456;12.626;2023-03-01T12:12:32;19.90;;;14.70;;
13331;SDS011;6735;51.456;12.626;2023-03-01T12:15:12;19.03;;;15.53;;
13331;SDS011;6735;51.456;12.626;2023-03-01T12:20:41;18.60;;;14.73;;
13331;SDS011;6735;51.456;12.626;2023-03-01T12:26:08;25.00;;;19.10;;
13331;SDS011;6735;51.456;12.626;2023-03-01T12:31:44;20.33;;;16.10;;
13331;SDS011;6735;51.456;12.626;2023-03-01T12:34:51;21.97;;;15.43;;
13331;SDS011;6735;51.456;12.626;2023-03-01T12:40:15;24.57;;;18.37;;
13331;SDS011;6735;51.456;12.626;2023-03-01T12:46:20;17.93;;;13.77;;
13331;SDS011;6735;51.456;12.626;2023-03-01T12:49:10;18.60;;;13.80;;
13331;SDS011;6735;51.456;12.626;2023-03-01T12:51:41;18.00;;;13.77;;
13331;SDS011;6735;51.456;12.626;2023-03-01T12:54:20;21.00;;;16.07;;
13331;SDS011;6735;51.456;12.626;2023-03-01T12:56:55;19.47;;;14.10;;
13331;SDS011;6735;51.456;12.626;2023-03-01T13:04:51;16.30;;;11.87;;
13331;SDS011;6735;51.456;12.626;2023-03-01T13:08:11;15.43;;;11.83;;
13331;SDS011;6735;51.456;12.626;2023-03-01T13:10:33;16.27;;;11.00;;
13331;SDS011;6735;51.456;12.626;2023-03-01T13:13:19;18.07;;;14.37;;
13331;SDS011;6735;51.456;12.626;2023-03-01T13:15:47;16.90;;;11.03;;
13331;SDS011;6735;51.456;12.626;2023-03-01T13:31:00;12.40;;;10.53;;
13331;SDS011;6735;51.456;12.626;2023-03-01T13:35:58;13.70;;;10.97;;
13331;SDS011;6735;51.456;12.626;2023-03-01T13:41:11;14.40;;;10.50;;
13331;SDS011;6735;51.456;12.626;2023-03-01T13:43:42;11.03;;;9.03;;
13331;SDS011;6735;51.456;12.626;2023-03-01T13:46:20;14.37;;;9.43;;
13331;SDS011;6735;51.456;12.626;2023-03-01T13:48:48;15.27;;;11.20;;
13331;SDS011;6735;51.456;12.626;2023-03-01T13:51:19;18.60;;;12.43;;
13331;SDS011;6735;51.456;12.626;2023-03-01T13:53:50;12.80;;;10.03;;
13331;SDS011;6735;51.456;12.626;2023-03-01T13:56:26;14.77;;;11.00;;
13331;SDS011;6735;51.456;12.626;2023-03-01T13:58:54;14.60;;;10.00;;
13331;SDS011;6735;51.456;12.626;2023-03-01T14:01:26;13.10;;;10.67;;
13331;SDS011;6735;51.456;12.626;2023-03-01T14:04:01;13.83;;;11.23;;
13331;SDS011;6735;51.456;12.626;2023-03-01T14:06:29;12.80;;;9.30;;
13331;SDS011;6735;51.456;12.626;2023-03-01T14:11:46;13.87;;;10.93;;
13331;SDS011;6735;51.456;12.626;2023-03-01T14:17:30;16.30;;;11.63;;
13331;SDS011;6735;51.456;12.626;2023-03-01T14:19:57;17.37;;;12.13;;
13331;SDS011;6735;51.456;12.626;2023-03-01T14:22:26;16.17;;;11.50;;
13331;SDS011;6735;51.456;12.626;2023-03-01T14:24:58;14.87;;;10.17;;
13331;SDS011;6735;51.456;12.626;2023-03-01T14:27:26;10.83;;;9.43;;
13331;SDS011;6735;51.456;12.626;2023-03-01T14:29:59;17.33;;;10.67;;
13331;SDS011;6735;51.456;12.626;2023-03-01T14:32:28;11.60;;;9.70;;
13331;SDS011;6735;51.456;12.626;2023-03-01T14:34:55;13.87;;;9.20;;
13331;SDS011;6735;51.456;12.626;2023-03-01T14:37:24;10.13;;;7.90;;
13331;SDS011;6735;51.456;12.626;2023-03-01T14:40:00;9.43;;;7.90;;
13331;SDS011;6735;51.456;12.626;2023-03-01T14:42:33;11.00;;;8.90;;
13331;SDS011;6735;51.456;12.626;2023-03-01T14:45:00;12.40;;;10.10;;
13331;SDS011;6735;51.456;12.626;2023-03-01T14:47:32;14.97;;;10.20;;
13331;SDS011;6735;51.456;12.626;2023-03-01T14:50:02;10.07;;;8.30;;
13331;SDS011;6735;51.456;12.626;2023-03-01T14:52:48;12.93;;;9.00;;
13331;SDS011;6735;51.456;12.626;2023-03-01T14:55:19;10.03;;;8.17;;
13331;SDS011;6735;51.456;12.626;2023-03-01T14:57:49;10.70;;;8.20;;
13331;SDS011;6735;51.456;12.626;2023-03-01T15:00:18;10.50;;;8.10;;
13331;SDS011;6735;51.456;12.626;2023-03-01T15:02:47;11.00;;;8.63;;
13331;SDS011;6735;51.456;12.626;2023-03-01T15:05:15;9.77;;;8.23;;
13331;SDS011;6735;51.456;12.626;2023-03-01T15:07:43;10.03;;;8.40;;
13331;SDS011;6735;51.456;12.626;2023-03-01T15:10:21;10.77;;;8.60;;
13331;SDS011;6735;51.456;12.626;2023-03-01T15:12:48;10.70;;;8.10;;
13331;SDS011;6735;51.456;12.626;2023-03-01T15:15:22;11.13;;;9.20;;
13331;SDS011;6735;51.456;12.626;2023-03-01T15:18:03;10.03;;;8.60;;
13331;SDS011;6735;51.456;12.626;2023-03-01T15:20:44;10.00;;;7.93;;
13331;SDS011;6735;51.456;12.626;2023-03-01T15:23:18;12.07;;;8.63;;
13331;SDS011;6735;51.456;12.626;2023-03-01T15:25:47;12.13;;;8.73;;
13331;SDS011;6735;51.456;12.626;2023-03-01T15:28:19;9.50;;;8.23;;
13331;SDS011;6735;51.456;12.626;2023-03-01T15:30:45;9.67;;;8.17;;
13331;SDS011;6735;51.456;12.626;2023-03-01T15:33:17;9.20;;;8.20;;
13331;SDS011;6735;51.456;12.626;2023-03-01T15:35:45;10.63;;;8.40;;
13331;SDS011;6735;51.456;12.626;2023-03-01T15:38:23;10.50;;;8.63;;
13331;SDS011;6735;51.456;12.626;2023-03-01T15:41:22;9.10;;;8.10;;
13331;SDS011;6735;51.456;12.626;2023-03-01T15:44:14;10.80;;;8.57;;
13331;SDS011;6735;51.456;12.626;2023-03-01T15:46:44;10.03;;;7.33;;
13331;SDS011;6735;51.456;12.626;2023-03-01T15:49:30;11.53;;;7.77;;
13331;SDS011;6735;51.456;12.626;2023-03-01T15:52:01;9.33;;;8.33;;
13331;SDS011;6735;51.456;12.626;2023-03-01T15:54:27;10.50;;;8.77;;
13331;SDS011;6735;51.456;12.626;2023-03-01T15:56:54;10.30;;;8.67;;
13331;SDS011;6735;51.456;12.626;2023-03-01T15:59:20;11.83;;;8.83;;
13331;SDS011;6735;51.456;12.626;2023-03-01T16:01:47;11.77;;;8.40;;